Latest Weather Observations for Ceduna

IDS60801

Issued at 5:31 pm CST Tuesday 20 April 2021 (issued every 10 minutes, with the page automatically refreshed every 10 minutes)

About weather observations | Map of weather stations | Latest weather observations for SA | Other Formats
Station Details ID: 018012 Name: CEDUNA AMO Lat: -32.13 Lon: 133.70 Height: 15.3 m
Data from the previous 72 hours. | See also: Recent months at Ceduna
Date/Time
CST
Temp
°C
App
Temp
°C
Dew
Point
°C
Rel
Hum
%
Delta-T
°C
Wind Press
QNH
hPa
Press
MSL
hPa
Rain since
9am
mm
Dir  Spd
km/h
Gust
km/h
Spd
kts
Gust
kts
20/05:30pm 18.9 16.1 13.1 69 3.3 SSE 20 28 11 15 1018.4 1018.4 0.0
20/05:00pm 19.1 16.4 13.5 70 3.2 SSE 20 30 11 16 1018.2 1018.2 0.0
20/04:30pm 19.4 15.7 13.8 70 3.2 SSE 26 32 14 17 1017.9 1017.9 0.0
20/04:00pm 19.2 15.5 13.8 71 3.1 SSE 26 33 14 18 1017.9 1017.9 0.0
20/03:30pm 18.1 15.0 15.7 86 1.4 S 26 33 14 18 1018.1 1018.1 0.0
20/03:00pm 19.1 15.3 14.6 75 2.6 S 28 33 15 18 1017.8 1017.8 0.0
20/02:30pm 20.0 17.5 15.2 74 2.8 SW 22 28 12 15 1017.7 1017.7 0.0
20/02:00pm 19.5 16.5 14.7 74 2.8 SW 24 30 13 16 1017.7 1017.7 0.0
20/01:30pm 19.6 16.1 14.4 72 3.0 WSW 26 32 14 17 1018.0 1018.0 0.0
20/01:00pm 20.3 17.1 14.2 68 3.5 SW 24 33 13 18 1018.2 1018.2 0.0
20/12:30pm 20.8 17.8 13.7 64 4.1 WSW 22 30 12 16 1018.5 1018.5 0.0
20/12:00pm 21.1 18.6 14.0 64 4.1 WSW 20 26 11 14 1018.7 1018.7 0.0
20/11:30am 21.1 18.6 13.5 62 4.4 W 19 24 10 13 1018.7 1018.7 0.0
20/11:00am 20.6 18.2 12.8 61 4.4 W 17 20 9 11 1018.9 1018.9 0.0
20/10:30am 20.1 17.8 11.8 59 4.6 WNW 15 20 8 11 1018.9 1018.9 0.0
20/10:00am 19.1 17.1 11.4 61 4.2 WNW 13 19 7 10 1018.9 1018.9 0.0
20/09:30am 17.6 15.4 10.9 65 3.6 NW 13 19 7 10 1018.9 1018.9 0.0
20/09:00am 15.8 13.3 9.7 67 3.2 NNW 13 17 7 9 1018.7 1018.7 0.0
20/08:30am 13.8 11.9 9.0 73 2.4 NW 9 13 5 7 1018.7 1018.7 0.0
20/08:00am 11.7 10.2 8.4 80 1.6 NNW 6 9 3 5 1018.3 1018.3 0.0
20/07:30am 9.4 7.4 7.2 86 1.0 NNW 7 13 4 7 1018.1 1018.1 0.0
20/07:00am 8.8 6.4 6.8 87 0.9 NNW 9 13 5 7 1017.7 1017.7 0.0
20/06:30am 8.8 5.9 6.6 86 1.0 N 11 13 6 7 1017.3 1017.3 0.0
20/06:00am 9.0 6.1 6.6 85 1.1 N 11 13 6 7 1016.9 1016.9 0.0
20/05:30am 9.5 6.4 7.3 86 1.0 NNW 13 15 7 8 1016.7 1016.7 0.0
20/05:00am 9.1 6.3 6.9 86 1.0 N 11 15 6 8 1016.4 1016.4 0.0
20/04:30am 8.6 5.0 6.6 87 0.9 N 15 17 8 9 1016.2 1016.2 0.0
20/04:00am 8.5 6.3 6.1 85 1.1 NNW 7 9 4 5 1016.4 1016.4 0.0
20/03:30am 9.3 6.8 6.7 84 1.2 N 9 11 5 6 1016.5 1016.5 0.0
20/03:00am 9.4 6.6 6.8 84 1.2 N 11 13 6 7 1016.6 1016.6 0.0
20/02:30am 10.3 8.1 7.9 85 1.2 N 9 9 5 5 1016.7 1016.7 0.0
20/02:00am 9.5 7.1 6.8 83 1.3 N 9 9 5 5 1016.9 1016.9 0.0
20/01:30am 9.8 7.8 6.9 82 1.4 N 7 9 4 5 1016.8 1016.8 0.0
20/01:00am 10.2 7.9 7.4 83 1.3 NNE 9 9 5 5 1016.7 1016.7 0.0
20/12:30am 9.3 7.2 6.6 83 1.3 N 7 9 4 5 1016.7 1016.7 0.0
20/12:00am 8.8 6.7 5.9 82 1.3 N 6 9 3 5 1016.8 1016.8 0.0
 
Date/Time
CST
Temp
°C
App
Temp
°C
Dew
Point
°C
Rel
Hum
%
Delta-T
°C
Wind Press
QNH
hPa
Press
MSL
hPa
Rain since
9am
mm
Dir  Spd
km/h
Gust
km/h
Spd
kts
Gust
kts
19/11:30pm 9.6 7.1 6.5 81 1.4 N 9 11 5 6 1016.8 1016.8 0.0
19/11:00pm 10.0 7.9 6.7 80 1.5 NNE 7 9 4 5 1017.0 1017.0 0.0
19/10:30pm 9.7 7.7 6.4 80 1.5 NE 6 9 3 5 1017.0 1017.0 0.0
19/10:00pm 10.3 8.2 6.5 77 1.8 NE 7 9 4 5 1017.0 1017.0 0.0
19/09:30pm 11.4 9.6 7.3 76 2.0 SSE 6 7 3 4 1017.1 1017.1 0.0
19/09:00pm 11.7 10.0 7.4 75 2.1 SSE 6 9 3 5 1017.2 1017.2 0.0
19/08:30pm 12.6 10.8 8.1 74 2.2 SSE 7 7 4 4 1017.0 1017.0 0.0
19/08:00pm 14.7 13.5 9.5 71 2.7 SSW 6 9 3 5 1016.9 1016.9 0.0
19/07:30pm 16.6 14.4 10.7 68 3.1 SW 13 15 7 8 1016.7 1016.7 0.0
19/07:00pm 17.7 15.0 10.3 62 3.9 SW 15 20 8 11 1016.7 1016.7 0.0
19/06:30pm 18.0 14.4 9.9 59 4.3 SW 19 24 10 13 1016.4 1016.4 0.0
19/06:00pm 18.6 14.8 9.9 57 4.6 SW 20 28 11 15 1016.2 1016.2 0.0
19/05:30pm 19.3 14.0 8.6 50 5.6 SW 26 32 14 17 1016.1 1016.1 0.0
19/05:00pm 19.9 14.3 8.6 48 5.9 SW 28 32 15 17 1015.9 1015.9 0.0
19/04:30pm 20.6 15.1 7.6 43 6.7 SW 26 32 14 17 1015.9 1015.9 0.0
19/04:00pm 20.7 15.3 8.0 44 6.6 SW 26 35 14 19 1015.9 1015.9 0.0
19/03:30pm 21.2 14.6 7.8 42 6.9 SW 32 41 17 22 1016.0 1016.0 0.0
19/03:00pm 22.0 16.1 8.9 43 7.0 SW 30 37 16 20 1016.1 1016.1 0.0
19/02:30pm 22.2 15.4 6.8 37 7.9 SW 32 43 17 23 1016.1 1016.1 0.0
19/02:00pm 21.6 15.2 7.1 39 7.4 SW 30 39 16 21 1016.3 1016.3 0.0
19/01:30pm 22.0 17.6 7.4 39 7.5 SW 20 28 11 15 1016.9 1016.9 0.0
19/01:00pm 20.6 15.7 6.9 41 7.0 SW 22 28 12 15 1017.6 1017.6 0.0
19/12:30pm 21.4 17.6 7.6 41 7.1 SW 17 22 9 12 1018.1 1018.1 0.0
19/12:00pm 21.2 17.0 7.4 41 7.1 SW 19 28 10 15 1018.4 1018.4 0.0
19/11:30am 21.0 16.9 6.2 38 7.4 W 17 24 9 13 1018.8 1018.8 0.0
19/11:00am 21.4 17.4 6.5 38 7.6 NW 17 28 9 15 1019.1 1019.1 0.0
19/10:30am 20.4 17.4 7.7 44 6.5 N 13 17 7 9 1019.6 1019.6 0.0
19/10:00am 18.9 15.8 8.8 52 5.3 N 15 20 8 11 1020.0 1020.0 0.0
19/09:30am 17.6 13.7 9.5 59 4.2 NNE 20 24 11 13 1020.3 1020.3 0.0
19/09:00am 15.5 14.0 10.7 73 2.5 N 9 13 5 7 1020.5 1020.5 0.0
19/08:30am 12.2 10.8 10.8 91 0.7 NNE 9 11 5 6 1020.6 1020.6 0.0
19/08:00am 9.5 8.1 9.0 97 0.2 NNE 6 9 3 5 1020.6 1020.6 0.0
19/07:30am 7.1 5.0 6.7 97 0.2 NNE 7 9 4 5 1020.6 1020.6 0.0
19/07:00am 5.9 3.1 5.3 96 0.3 NNE 9 15 5 8 1020.6 1020.6 0.0
19/06:30am 5.8 3.4 5.1 95 0.3 NNE 7 9 4 5 1020.6 1020.6 0.0
19/06:00am 6.6 4.0 6.0 96 0.3 ENE 9 13 5 7 1020.4 1020.4 0.0
19/05:30am 7.5 6.8 6.9 96 0.3 CALM 0 0 0 0 1020.5 1020.5 0.0
19/05:00am 6.4 4.3 5.7 95 0.3 ENE 6 9 3 5 1020.3 1020.3 0.0
19/04:30am 7.1 3.5 6.7 97 0.2 ENE 15 17 8 9 1020.4 1020.4 0.0
19/04:00am 6.6 4.5 5.7 94 0.4 NE 6 7 3 4 1020.8 1020.8 0.0
19/03:30am 6.4 4.0 5.4 93 0.4 NE 7 9 4 5 1021.1 1021.1 0.0
19/03:00am 8.2 6.2 7.3 94 0.4 NE 7 9 4 5 1021.4 1021.4 0.0
19/02:30am 8.3 5.6 7.2 93 0.5 NE 11 13 6 7 1021.8 1021.8 0.0
19/02:00am 6.9 4.6 5.7 92 0.5 NE 7 9 4 5 1022.3 1022.3 0.0
19/01:30am 7.0 4.3 5.5 90 0.7 NE 9 11 5 6 1022.5 1022.5 0.0
19/01:00am 8.8 6.9 7.6 92 0.6 ENE 7 11 4 6 1022.7 1022.7 0.0
19/12:30am 8.2 6.0 6.3 88 0.9 ENE 7 11 4 6 1022.8 1022.8 0.0
19/12:00am 8.5 6.4 6.6 88 0.9 E 7 13 4 7 1022.9 1022.9 0.0
 
Date/Time
CST
Temp
°C
App
Temp
°C
Dew
Point
°C
Rel
Hum
%
Delta-T
°C
Wind Press
QNH
hPa
Press
MSL
hPa
Rain since
9am
mm
Dir  Spd
km/h
Gust
km/h
Spd
kts
Gust
kts
18/11:30pm 8.3 5.7 6.1 86 1.0 ESE 9 11 5 6 1023.2 1023.2 0.0
18/11:00pm 8.0 5.3 5.5 84 1.1 ESE 9 11 5 6 1023.4 1023.4 0.0
18/10:30pm 11.0 10.6 8.4 84 1.3 CALM 0 7 0 4 1023.3 1023.3 0.0
18/10:00pm 11.2 10.9 8.6 84 1.3 CALM 0 6 0 3 1023.6 1023.6 0.0
18/09:30pm 11.6 9.9 8.3 80 1.6 SE 7 9 4 5 1023.5 1023.5 0.0
18/09:00pm 13.2 10.9 9.1 76 2.1 SSE 11 13 6 7 1023.7 1023.7 0.0
18/08:30pm 14.8 12.4 10.0 73 2.5 SSE 13 15 7 8 1023.7 1023.7 0.0
18/08:00pm 15.9 13.8 11.3 74 2.5 SSE 13 17 7 9 1023.8 1023.8 0.0
18/07:30pm 16.2 14.2 11.4 73 2.6 S 13 17 7 9 1024.0 1024.0 0.0
18/07:00pm 16.4 13.5 10.9 70 2.9 S 17 20 9 11 1023.9 1023.9 0.0
18/06:30pm 16.7 13.3 10.5 67 3.3 S 19 24 10 13 1023.8 1023.8 0.0
18/06:00pm 17.5 13.2 9.4 59 4.2 S 22 32 12 17 1023.6 1023.6 0.0
18/05:30pm 18.3 13.6 9.4 56 4.7 S 24 32 13 17 1023.4 1023.4 0.0
18/05:00pm 18.9 13.6 9.7 55 4.9 S 28 35 15 19 1023.6 1023.6 0.0
18/04:30pm 19.4 14.0 9.6 53 5.2 S 28 37 15 20 1023.4 1023.4 0.0
18/04:00pm 20.0 14.5 9.0 49 5.8 S 28 33 15 18 1023.4 1023.4 0.0
18/03:30pm 20.6 15.3 8.6 46 6.3 S 26 30 14 16 1023.6 1023.6 0.0
18/03:00pm 20.9 15.5 7.9 43 6.7 SSW 26 33 14 18 1023.8 1023.8 0.0
18/02:30pm 21.1 16.5 6.6 39 7.3 SW 20 26 11 14 1024.0 1024.0 0.0
18/02:00pm 20.7 16.3 7.3 42 6.9 SSW 20 26 11 14 1024.4 1024.4 0.0
18/01:30pm 21.2 17.1 8.5 44 6.6 SSW 20 24 11 13 1024.8 1024.8 0.0
18/01:00pm 20.9 17.6 9.5 48 6.1 SSW 17 22 9 12 1025.3 1025.3 0.0
18/12:30pm 21.1 18.8 7.3 41 7.0 SW 9 17 5 9 1025.9 1025.9 0.0
18/12:00pm 19.9 18.0 9.2 50 5.6 SSW 9 17 5 9 1026.4 1026.4 0.0
18/11:30am 20.2 17.8 6.9 42 6.7 NE 9 22 5 12 1026.9 1026.9 0.0
18/11:00am 20.0 17.8 8.0 46 6.2 ENE 9 15 5 8 1027.4 1027.4 0.0
18/10:30am 19.0 16.9 8.1 49 5.6 ENE 9 15 5 8 1027.6 1027.6 0.0
18/10:00am 18.1 14.8 9.5 57 4.5 ENE 17 20 9 11 1027.8 1027.8 0.0
18/09:30am 16.4 13.5 9.6 64 3.5 E 15 19 8 10 1028.1 1028.1 0.0
18/09:00am 14.5 11.7 10.1 75 2.3 ENE 15 19 8 10 1028.1 1028.1 0.0
18/08:30am 12.5 10.8 11.2 92 0.7 NE 11 17 6 9 1028.0 1028.0 0.0
18/08:00am 9.6 8.3 9.3 98 0.1 ENE 6 9 3 5 1027.9 1027.9 0.0
18/07:30am 5.4 2.9 5.0 97 0.2 ENE 7 9 4 5 1027.7 1027.7 0.0
18/07:00am 6.2 3.9 5.9 98 0.1 NE 7 9 4 5 1027.6 1027.6 0.0
18/06:30am 4.5 2.0 3.8 95 0.3 NE 6 7 3 4 1027.2 1027.2 0.0
18/06:00am 4.3 1.2 3.6 95 0.3 NE 9 11 5 6 1027.2 1027.2 0.0
18/05:30am 4.7 2.2 4.0 95 0.3 NE 6 7 3 4 1027.4 1027.4 0.0
18/05:00am 5.7 3.5 5.1 96 0.3 NE 6 7 3 4 1027.2 1027.2 0.0
18/04:30am 5.0 2.4 4.3 95 0.3 NE 7 7 4 4 1027.1 1027.1 0.0
18/04:00am 5.2 2.7 4.5 95 0.3 NE 7 9 4 5 1027.2 1027.2 0.0
18/03:30am 5.4 3.0 4.5 94 0.4 NE 6 7 3 4 1027.3 1027.3 0.0
18/03:00am 6.7 4.4 5.8 94 0.4 NE 7 7 4 4 1027.5 1027.5 0.0
18/02:30am 7.4 4.9 6.5 94 0.4 ENE 9 13 5 7 1027.6 1027.6 0.0
18/02:00am 5.9 2.6 4.7 92 0.5 ENE 11 13 6 7 1027.8 1027.8 0.0
18/01:30am 6.4 3.2 5.0 91 0.6 ENE 11 13 6 7 1027.8 1027.8 0.0
18/01:00am 6.8 4.4 5.3 90 0.7 ENE 7 11 4 6 1027.9 1027.9 0.0
18/12:30am 8.3 6.4 6.8 90 0.7 NE 6 6 3 3 1028.2 1028.2 0.0
18/12:00am 8.6 6.7 6.9 89 0.8 ENE 6 7 3 4 1028.4 1028.4 0.0
 
Date/Time
CST
Temp
°C
App
Temp
°C
Dew
Point
°C
Rel
Hum
%
Delta-T
°C
Wind Press
QNH
hPa
Press
MSL
hPa
Rain since
9am
mm
Dir  Spd
km/h
Gust
km/h
Spd
kts
Gust
kts
17/11:30pm 8.4 5.9 6.7 89 0.8 E 9 13 5 7 1028.4 1028.4 0.0
17/11:00pm 8.4 6.2 6.2 86 1.0 E 7 9 4 5 1028.9 1028.9 0.0
17/10:30pm 10.5 8.8 8.3 86 1.1 E 7 9 4 5 1029.2 1029.2 0.0
17/10:00pm 11.4 9.7 8.4 82 1.5 SE 7 7 4 4 1029.1 1029.1 0.0
17/09:30pm 13.4 11.5 10.4 82 1.5 S 11 13 6 7 1029.0 1029.0 0.0
17/09:00pm 14.2 12.8 10.8 80 1.8 S 9 11 5 6 1029.0 1029.0 0.0
17/08:30pm 14.4 12.9 10.4 77 2.1 S 9 13 5 7 1028.8 1028.8 0.0
17/08:00pm 14.6 12.3 10.4 76 2.2 S 13 15 7 8 1028.7 1028.7 0.0
17/07:30pm 14.8 12.5 10.4 75 2.3 S 13 15 7 8 1028.7 1028.7 0.0
17/07:00pm 15.8 13.6 10.8 72 2.7 S 13 17 7 9 1028.7 1028.7 0.0
17/06:30pm 16.2 13.3 9.6 65 3.4 S 15 19 8 10 1028.6 1028.6 0.0
17/06:00pm 17.3 13.7 9.7 61 4.0 S 19 24 10 13 1028.4 1028.4 0.0

Other formats

Comma delimited format used in spreadsheet applications
http://www.bom.gov.au/fwo/IDS60801/IDS60801.94653.axf

JavaScript Object Notation format (JSON) in row-major order
http://www.bom.gov.au/fwo/IDS60801/IDS60801.94653.json

Data quality

Most of these data are generated automatically and are frequently updated. Quality checks on data are not normally performed. It is possible for incorrect values to appear. Refer to information at About Latest Weather Observations and please check the disclaimer before using these data.